sensor_id;sensor_type;location;lat;lon;timestamp;P1;durP1;ratioP1;P2;durP2;ratioP2
11699;SDS011;5906;51.660;6.674;2024-03-25T00:01:40;14.57;;;5.23;;
11699;SDS011;5906;51.660;6.674;2024-03-25T00:04:06;15.90;;;5.20;;
11699;SDS011;5906;51.660;6.674;2024-03-25T00:06:32;13.80;;;4.80;;
11699;SDS011;5906;51.660;6.674;2024-03-25T00:08:59;14.03;;;5.20;;
11699;SDS011;5906;51.660;6.674;2024-03-25T00:11:26;14.43;;;5.20;;
11699;SDS011;5906;51.660;6.674;2024-03-25T00:13:52;10.03;;;4.40;;
11699;SDS011;5906;51.660;6.674;2024-03-25T00:16:17;17.87;;;6.07;;
11699;SDS011;5906;51.660;6.674;2024-03-25T00:18:44;19.80;;;6.40;;
11699;SDS011;5906;51.660;6.674;2024-03-25T00:21:10;17.93;;;5.10;;
11699;SDS011;5906;51.660;6.674;2024-03-25T00:23:36;14.17;;;5.00;;
11699;SDS011;5906;51.660;6.674;2024-03-25T00:26:02;23.53;;;5.80;;
11699;SDS011;5906;51.660;6.674;2024-03-25T00:28:28;16.43;;;4.70;;
11699;SDS011;5906;51.660;6.674;2024-03-25T00:30:54;19.07;;;5.83;;
11699;SDS011;5906;51.660;6.674;2024-03-25T00:33:20;16.07;;;4.70;;
11699;SDS011;5906;51.660;6.674;2024-03-25T00:35:47;17.60;;;5.73;;
11699;SDS011;5906;51.660;6.674;2024-03-25T00:38:15;20.93;;;4.60;;
11699;SDS011;5906;51.660;6.674;2024-03-25T00:40:41;14.10;;;6.07;;
11699;SDS011;5906;51.660;6.674;2024-03-25T00:43:07;18.77;;;6.30;;
11699;SDS011;5906;51.660;6.674;2024-03-25T00:45:33;19.50;;;5.67;;
11699;SDS011;5906;51.660;6.674;2024-03-25T00:47:59;21.13;;;6.27;;
11699;SDS011;5906;51.660;6.674;2024-03-25T00:50:25;22.17;;;7.10;;
11699;SDS011;5906;51.660;6.674;2024-03-25T00:52:51;16.33;;;7.37;;
11699;SDS011;5906;51.660;6.674;2024-03-25T00:55:17;23.80;;;7.77;;
11699;SDS011;5906;51.660;6.674;2024-03-25T00:57:45;28.63;;;8.00;;
11699;SDS011;5906;51.660;6.674;2024-03-25T01:00:11;24.70;;;9.23;;
11699;SDS011;5906;51.660;6.674;2024-03-25T01:02:37;21.70;;;11.40;;
11699;SDS011;5906;51.660;6.674;2024-03-25T01:05:04;28.20;;;11.60;;
11699;SDS011;5906;51.660;6.674;2024-03-25T01:07:31;28.73;;;14.47;;
11699;SDS011;5906;51.660;6.674;2024-03-25T01:09:57;41.63;;;18.30;;
11699;SDS011;5906;51.660;6.674;2024-03-25T01:12:24;47.70;;;22.40;;
11699;SDS011;5906;51.660;6.674;2024-03-25T01:14:51;54.90;;;23.47;;
11699;SDS011;5906;51.660;6.674;2024-03-25T01:17:17;54.00;;;26.03;;
11699;SDS011;5906;51.660;6.674;2024-03-25T01:19:44;58.80;;;26.47;;
11699;SDS011;5906;51.660;6.674;2024-03-25T01:22:10;59.07;;;26.67;;
11699;SDS011;5906;51.660;6.674;2024-03-25T01:24:36;57.30;;;30.37;;
11699;SDS011;5906;51.660;6.674;2024-03-25T01:27:02;62.03;;;27.37;;
11699;SDS011;5906;51.660;6.674;2024-03-25T01:29:29;51.77;;;26.80;;
11699;SDS011;5906;51.660;6.674;2024-03-25T01:31:55;56.23;;;28.00;;
11699;SDS011;5906;51.660;6.674;2024-03-25T01:34:22;66.93;;;26.53;;
11699;SDS011;5906;51.660;6.674;2024-03-25T01:36:48;51.23;;;28.20;;
11699;SDS011;5906;51.660;6.674;2024-03-25T01:39:15;65.30;;;26.87;;
11699;SDS011;5906;51.660;6.674;2024-03-25T01:41:41;54.30;;;26.83;;
11699;SDS011;5906;51.660;6.674;2024-03-25T01:44:07;53.03;;;26.60;;
11699;SDS011;5906;51.660;6.674;2024-03-25T01:46:33;57.33;;;26.87;;
11699;SDS011;5906;51.660;6.674;2024-03-25T01:48:59;64.23;;;25.17;;
11699;SDS011;5906;51.660;6.674;2024-03-25T01:51:25;51.53;;;25.73;;
11699;SDS011;5906;51.660;6.674;2024-03-25T01:53:52;49.47;;;24.17;;
11699;SDS011;5906;51.660;6.674;2024-03-25T01:56:20;56.63;;;26.03;;
11699;SDS011;5906;51.660;6.674;2024-03-25T01:58:51;50.07;;;24.53;;
11699;SDS011;5906;51.660;6.674;2024-03-25T02:01:17;42.83;;;22.17;;
11699;SDS011;5906;51.660;6.674;2024-03-25T02:03:45;58.17;;;21.27;;
11699;SDS011;5906;51.660;6.674;2024-03-25T02:06:13;52.03;;;21.03;;
11699;SDS011;5906;51.660;6.674;2024-03-25T02:08:40;42.90;;;19.43;;
11699;SDS011;5906;51.660;6.674;2024-03-25T02:11:07;44.47;;;19.10;;
11699;SDS011;5906;51.660;6.674;2024-03-25T02:13:35;33.63;;;16.87;;
11699;SDS011;5906;51.660;6.674;2024-03-25T02:16:01;42.70;;;16.07;;
11699;SDS011;5906;51.660;6.674;2024-03-25T02:18:27;39.30;;;15.93;;
11699;SDS011;5906;51.660;6.674;2024-03-25T02:20:54;30.97;;;13.97;;
11699;SDS011;5906;51.660;6.674;2024-03-25T02:23:20;32.63;;;14.17;;
11699;SDS011;5906;51.660;6.674;2024-03-25T02:25:50;22.53;;;11.63;;
11699;SDS011;5906;51.660;6.674;2024-03-25T02:28:16;37.47;;;10.67;;
11699;SDS011;5906;51.660;6.674;2024-03-25T02:30:42;28.73;;;11.37;;
11699;SDS011;5906;51.660;6.674;2024-03-25T02:33:08;21.33;;;8.90;;
11699;SDS011;5906;51.660;6.674;2024-03-25T02:35:34;26.33;;;8.90;;
11699;SDS011;5906;51.660;6.674;2024-03-25T02:38:01;38.03;;;9.37;;
11699;SDS011;5906;51.660;6.674;2024-03-25T02:40:29;25.90;;;10.00;;
11699;SDS011;5906;51.660;6.674;2024-03-25T02:42:55;27.03;;;8.33;;
11699;SDS011;5906;51.660;6.674;2024-03-25T02:45:22;24.17;;;7.27;;
11699;SDS011;5906;51.660;6.674;2024-03-25T02:47:48;24.50;;;8.10;;
11699;SDS011;5906;51.660;6.674;2024-03-25T02:50:15;19.00;;;7.63;;
11699;SDS011;5906;51.660;6.674;2024-03-25T02:52:41;19.10;;;6.90;;
11699;SDS011;5906;51.660;6.674;2024-03-25T02:55:07;22.67;;;8.40;;
11699;SDS011;5906;51.660;6.674;2024-03-25T02:57:34;21.80;;;6.57;;
11699;SDS011;5906;51.660;6.674;2024-03-25T03:00:00;23.53;;;7.10;;
11699;SDS011;5906;51.660;6.674;2024-03-25T03:02:26;20.53;;;6.50;;
11699;SDS011;5906;51.660;6.674;2024-03-25T03:04:52;20.43;;;6.00;;
11699;SDS011;5906;51.660;6.674;2024-03-25T03:07:19;27.27;;;5.80;;
11699;SDS011;5906;51.660;6.674;2024-03-25T03:09:45;21.83;;;6.20;;
11699;SDS011;5906;51.660;6.674;2024-03-25T03:12:11;20.87;;;7.40;;
11699;SDS011;5906;51.660;6.674;2024-03-25T03:14:37;22.30;;;6.90;;
11699;SDS011;5906;51.660;6.674;2024-03-25T03:17:03;13.70;;;6.30;;
11699;SDS011;5906;51.660;6.674;2024-03-25T03:19:30;22.57;;;6.93;;
11699;SDS011;5906;51.660;6.674;2024-03-25T03:21:57;21.53;;;7.43;;
11699;SDS011;5906;51.660;6.674;2024-03-25T03:24:23;27.73;;;6.50;;
11699;SDS011;5906;51.660;6.674;2024-03-25T03:26:49;24.03;;;7.77;;
11699;SDS011;5906;51.660;6.674;2024-03-25T03:29:15;24.90;;;7.80;;
11699;SDS011;5906;51.660;6.674;2024-03-25T03:31:41;24.60;;;7.33;;
11699;SDS011;5906;51.660;6.674;2024-03-25T03:34:08;27.03;;;7.53;;
11699;SDS011;5906;51.660;6.674;2024-03-25T03:36:35;18.83;;;7.50;;
11699;SDS011;5906;51.660;6.674;2024-03-25T03:39:01;14.30;;;5.77;;
11699;SDS011;5906;51.660;6.674;2024-03-25T03:41:29;14.97;;;6.27;;
11699;SDS011;5906;51.660;6.674;2024-03-25T03:43:55;20.33;;;7.40;;
11699;SDS011;5906;51.660;6.674;2024-03-25T03:46:21;17.90;;;7.00;;
11699;SDS011;5906;51.660;6.674;2024-03-25T03:48:47;18.77;;;6.63;;
11699;SDS011;5906;51.660;6.674;2024-03-25T03:51:13;14.60;;;7.00;;
11699;SDS011;5906;51.660;6.674;2024-03-25T03:53:39;22.40;;;7.50;;
11699;SDS011;5906;51.660;6.674;2024-03-25T03:56:05;15.03;;;6.77;;
11699;SDS011;5906;51.660;6.674;2024-03-25T03:58:32;13.83;;;6.70;;
11699;SDS011;5906;51.660;6.674;2024-03-25T04:00:58;13.63;;;5.60;;
11699;SDS011;5906;51.660;6.674;2024-03-25T04:03:25;21.90;;;6.93;;
11699;SDS011;5906;51.660;6.674;2024-03-25T04:05:51;17.20;;;6.93;;
11699;SDS011;5906;51.660;6.674;2024-03-25T04:08:18;17.43;;;7.27;;
11699;SDS011;5906;51.660;6.674;2024-03-25T04:10:44;15.60;;;7.10;;
11699;SDS011;5906;51.660;6.674;2024-03-25T04:13:11;12.60;;;6.07;;
11699;SDS011;5906;51.660;6.674;2024-03-25T04:15:38;29.60;;;6.60;;
11699;SDS011;5906;51.660;6.674;2024-03-25T04:18:06;13.20;;;6.33;;
11699;SDS011;5906;51.660;6.674;2024-03-25T04:20:36;13.23;;;5.50;;
11699;SDS011;5906;51.660;6.674;2024-03-25T04:23:03;13.87;;;5.30;;
11699;SDS011;5906;51.660;6.674;2024-03-25T04:25:30;19.90;;;6.40;;
11699;SDS011;5906;51.660;6.674;2024-03-25T04:27:56;18.17;;;6.37;;
11699;SDS011;5906;51.660;6.674;2024-03-25T04:30:22;14.90;;;5.40;;
11699;SDS011;5906;51.660;6.674;2024-03-25T04:32:48;16.00;;;6.43;;
11699;SDS011;5906;51.660;6.674;2024-03-25T04:35:14;13.63;;;6.90;;
11699;SDS011;5906;51.660;6.674;2024-03-25T04:37:40;24.47;;;6.13;;
11699;SDS011;5906;51.660;6.674;2024-03-25T04:40:09;19.40;;;7.33;;
11699;SDS011;5906;51.660;6.674;2024-03-25T04:42:35;10.37;;;6.63;;
11699;SDS011;5906;51.660;6.674;2024-03-25T04:45:02;14.20;;;5.80;;
11699;SDS011;5906;51.660;6.674;2024-03-25T04:47:28;19.40;;;6.40;;
11699;SDS011;5906;51.660;6.674;2024-03-25T04:49:56;24.53;;;7.57;;
11699;SDS011;5906;51.660;6.674;2024-03-25T04:52:22;10.90;;;5.40;;
11699;SDS011;5906;51.660;6.674;2024-03-25T04:54:49;19.50;;;6.40;;
11699;SDS011;5906;51.660;6.674;2024-03-25T04:57:15;17.50;;;6.90;;
11699;SDS011;5906;51.660;6.674;2024-03-25T04:59:41;14.63;;;6.37;;
11699;SDS011;5906;51.660;6.674;2024-03-25T05:02:07;24.23;;;6.07;;
11699;SDS011;5906;51.660;6.674;2024-03-25T05:04:33;12.57;;;5.93;;
11699;SDS011;5906;51.660;6.674;2024-03-25T05:06:59;23.93;;;8.03;;
11699;SDS011;5906;51.660;6.674;2024-03-25T05:09:25;14.80;;;6.63;;
11699;SDS011;5906;51.660;6.674;2024-03-25T05:11:51;16.53;;;7.00;;
11699;SDS011;5906;51.660;6.674;2024-03-25T05:14:17;13.13;;;6.00;;
11699;SDS011;5906;51.660;6.674;2024-03-25T05:16:43;19.93;;;7.20;;
11699;SDS011;5906;51.660;6.674;2024-03-25T05:19:09;14.60;;;6.10;;
11699;SDS011;5906;51.660;6.674;2024-03-25T05:21:35;20.53;;;6.10;;
11699;SDS011;5906;51.660;6.674;2024-03-25T05:24:01;17.10;;;5.90;;
11699;SDS011;5906;51.660;6.674;2024-03-25T05:26:28;22.70;;;8.03;;
11699;SDS011;5906;51.660;6.674;2024-03-25T05:28:54;17.63;;;6.73;;
11699;SDS011;5906;51.660;6.674;2024-03-25T05:31:21;24.50;;;8.40;;
11699;SDS011;5906;51.660;6.674;2024-03-25T05:33:48;23.57;;;8.07;;
11699;SDS011;5906;51.660;6.674;2024-03-25T05:36:14;14.80;;;6.37;;
11699;SDS011;5906;51.660;6.674;2024-03-25T05:38:40;26.97;;;6.90;;
11699;SDS011;5906;51.660;6.674;2024-03-25T05:41:10;22.87;;;7.90;;
11699;SDS011;5906;51.660;6.674;2024-03-25T05:43:36;24.30;;;7.63;;
11699;SDS011;5906;51.660;6.674;2024-03-25T05:46:02;15.40;;;6.70;;
11699;SDS011;5906;51.660;6.674;2024-03-25T05:48:28;19.03;;;10.10;;
11699;SDS011;5906;51.660;6.674;2024-03-25T05:50:57;21.23;;;7.10;;
11699;SDS011;5906;51.660;6.674;2024-03-25T05:53:35;24.40;;;8.87;;
11699;SDS011;5906;51.660;6.674;2024-03-25T05:56:05;24.63;;;7.90;;
11699;SDS011;5906;51.660;6.674;2024-03-25T05:58:32;20.80;;;7.47;;
11699;SDS011;5906;51.660;6.674;2024-03-25T06:00:58;18.57;;;7.60;;
11699;SDS011;5906;51.660;6.674;2024-03-25T06:03:27;22.20;;;8.10;;
11699;SDS011;5906;51.660;6.674;2024-03-25T06:05:56;21.50;;;7.90;;
11699;SDS011;5906;51.660;6.674;2024-03-25T06:08:22;16.20;;;7.50;;
11699;SDS011;5906;51.660;6.674;2024-03-25T06:10:51;20.50;;;7.33;;
11699;SDS011;5906;51.660;6.674;2024-03-25T06:13:17;20.30;;;8.03;;
11699;SDS011;5906;51.660;6.674;2024-03-25T06:15:44;18.87;;;9.23;;
11699;SDS011;5906;51.660;6.674;2024-03-25T06:18:11;25.17;;;8.80;;
11699;SDS011;5906;51.660;6.674;2024-03-25T06:20:37;19.03;;;7.90;;
11699;SDS011;5906;51.660;6.674;2024-03-25T06:23:03;29.90;;;8.33;;
11699;SDS011;5906;51.660;6.674;2024-03-25T06:25:30;24.90;;;8.40;;
11699;SDS011;5906;51.660;6.674;2024-03-25T06:27:56;23.97;;;8.10;;
11699;SDS011;5906;51.660;6.674;2024-03-25T06:30:22;25.27;;;8.70;;
11699;SDS011;5906;51.660;6.674;2024-03-25T06:33:07;25.67;;;9.27;;
11699;SDS011;5906;51.660;6.674;2024-03-25T06:35:52;27.50;;;9.67;;
11699;SDS011;5906;51.660;6.674;2024-03-25T06:38:18;25.50;;;9.50;;
11699;SDS011;5906;51.660;6.674;2024-03-25T06:40:44;32.87;;;9.03;;
11699;SDS011;5906;51.660;6.674;2024-03-25T06:43:11;18.23;;;8.53;;
11699;SDS011;5906;51.660;6.674;2024-03-25T06:45:37;22.00;;;8.50;;
11699;SDS011;5906;51.660;6.674;2024-03-25T06:48:03;25.77;;;8.93;;
11699;SDS011;5906;51.660;6.674;2024-03-25T06:50:30;30.70;;;9.37;;
11699;SDS011;5906;51.660;6.674;2024-03-25T06:52:56;33.83;;;10.30;;
11699;SDS011;5906;51.660;6.674;2024-03-25T06:55:22;35.47;;;11.43;;
11699;SDS011;5906;51.660;6.674;2024-03-25T06:57:52;29.47;;;9.10;;
11699;SDS011;5906;51.660;6.674;2024-03-25T07:00:19;32.10;;;11.03;;
11699;SDS011;5906;51.660;6.674;2024-03-25T07:02:50;22.47;;;10.00;;
11699;SDS011;5906;51.660;6.674;2024-03-25T07:05:16;27.57;;;9.67;;
11699;SDS011;5906;51.660;6.674;2024-03-25T07:07:42;30.33;;;10.03;;
11699;SDS011;5906;51.660;6.674;2024-03-25T07:10:08;28.70;;;9.37;;
11699;SDS011;5906;51.660;6.674;2024-03-25T07:12:34;36.10;;;11.60;;
11699;SDS011;5906;51.660;6.674;2024-03-25T07:15:00;22.63;;;9.50;;
11699;SDS011;5906;51.660;6.674;2024-03-25T07:17:27;30.70;;;9.77;;
11699;SDS011;5906;51.660;6.674;2024-03-25T07:19:53;21.83;;;10.00;;
11699;SDS011;5906;51.660;6.674;2024-03-25T07:22:19;38.23;;;10.37;;
11699;SDS011;5906;51.660;6.674;2024-03-25T07:24:46;36.03;;;9.80;;
11699;SDS011;5906;51.660;6.674;2024-03-25T07:27:12;27.80;;;9.27;;
11699;SDS011;5906;51.660;6.674;2024-03-25T07:29:38;32.40;;;10.60;;
11699;SDS011;5906;51.660;6.674;2024-03-25T07:32:04;26.23;;;9.97;;
11699;SDS011;5906;51.660;6.674;2024-03-25T07:34:30;24.40;;;10.03;;
11699;SDS011;5906;51.660;6.674;2024-03-25T07:36:56;32.67;;;9.77;;
11699;SDS011;5906;51.660;6.674;2024-03-25T07:39:22;20.13;;;9.00;;
11699;SDS011;5906;51.660;6.674;2024-03-25T07:41:52;28.33;;;10.60;;
11699;SDS011;5906;51.660;6.674;2024-03-25T07:44:19;26.30;;;8.53;;
11699;SDS011;5906;51.660;6.674;2024-03-25T07:46:44;29.37;;;9.57;;
11699;SDS011;5906;51.660;6.674;2024-03-25T07:49:10;22.30;;;8.23;;
11699;SDS011;5906;51.660;6.674;2024-03-25T07:51:36;18.40;;;8.10;;
11699;SDS011;5906;51.660;6.674;2024-03-25T07:54:04;27.93;;;8.60;;
11699;SDS011;5906;51.660;6.674;2024-03-25T07:56:30;19.97;;;7.03;;
11699;SDS011;5906;51.660;6.674;2024-03-25T07:58:58;18.97;;;8.00;;
11699;SDS011;5906;51.660;6.674;2024-03-25T08:01:25;23.47;;;8.37;;
11699;SDS011;5906;51.660;6.674;2024-03-25T08:03:52;18.83;;;9.30;;
11699;SDS011;5906;51.660;6.674;2024-03-25T08:06:18;19.70;;;8.70;;
11699;SDS011;5906;51.660;6.674;2024-03-25T08:08:46;19.23;;;7.77;;
11699;SDS011;5906;51.660;6.674;2024-03-25T08:11:14;28.70;;;9.20;;
11699;SDS011;5906;51.660;6.674;2024-03-25T08:13:40;19.30;;;8.83;;
11699;SDS011;5906;51.660;6.674;2024-03-25T08:16:06;27.20;;;8.90;;
11699;SDS011;5906;51.660;6.674;2024-03-25T08:18:33;21.23;;;8.00;;
11699;SDS011;5906;51.660;6.674;2024-03-25T08:20:59;23.13;;;8.23;;
11699;SDS011;5906;51.660;6.674;2024-03-25T08:23:28;27.40;;;7.90;;
11699;SDS011;5906;51.660;6.674;2024-03-25T08:25:54;25.87;;;7.40;;
11699;SDS011;5906;51.660;6.674;2024-03-25T08:28:21;26.87;;;8.23;;
11699;SDS011;5906;51.660;6.674;2024-03-25T08:30:46;13.40;;;6.33;;
11699;SDS011;5906;51.660;6.674;2024-03-25T08:33:12;24.97;;;6.37;;
11699;SDS011;5906;51.660;6.674;2024-03-25T08:35:38;20.77;;;6.23;;
11699;SDS011;5906;51.660;6.674;2024-03-25T08:38:04;18.23;;;5.60;;
11699;SDS011;5906;51.660;6.674;2024-03-25T08:40:30;20.37;;;5.03;;
11699;SDS011;5906;51.660;6.674;2024-03-25T08:42:56;16.20;;;5.03;;
11699;SDS011;5906;51.660;6.674;2024-03-25T08:45:23;23.67;;;4.87;;
11699;SDS011;5906;51.660;6.674;2024-03-25T08:47:49;23.37;;;5.13;;
11699;SDS011;5906;51.660;6.674;2024-03-25T08:50:15;19.07;;;5.70;;
11699;SDS011;5906;51.660;6.674;2024-03-25T08:52:40;15.20;;;5.47;;
11699;SDS011;5906;51.660;6.674;2024-03-25T08:55:06;9.83;;;4.57;;
11699;SDS011;5906;51.660;6.674;2024-03-25T08:57:33;11.67;;;4.60;;
11699;SDS011;5906;51.660;6.674;2024-03-25T08:59:58;23.60;;;7.33;;
11699;SDS011;5906;51.660;6.674;2024-03-25T09:02:24;17.87;;;4.70;;
11699;SDS011;5906;51.660;6.674;2024-03-25T09:04:50;23.37;;;5.13;;
11699;SDS011;5906;51.660;6.674;2024-03-25T09:07:18;26.30;;;5.80;;
11699;SDS011;5906;51.660;6.674;2024-03-25T09:09:44;22.27;;;5.47;;
11699;SDS011;5906;51.660;6.674;2024-03-25T09:12:30;19.17;;;5.50;;
11699;SDS011;5906;51.660;6.674;2024-03-25T09:14:56;14.60;;;5.73;;
11699;SDS011;5906;51.660;6.674;2024-03-25T09:17:22;14.90;;;5.23;;
11699;SDS011;5906;51.660;6.674;2024-03-25T09:19:50;18.90;;;4.77;;
11699;SDS011;5906;51.660;6.674;2024-03-25T09:22:17;16.97;;;5.37;;
11699;SDS011;5906;51.660;6.674;2024-03-25T09:24:43;17.97;;;5.47;;
11699;SDS011;5906;51.660;6.674;2024-03-25T09:27:10;11.57;;;3.80;;
11699;SDS011;5906;51.660;6.674;2024-03-25T09:32:05;14.63;;;4.60;;
11699;SDS011;5906;51.660;6.674;2024-03-25T09:34:31;12.10;;;4.20;;
11699;SDS011;5906;51.660;6.674;2024-03-25T09:36:57;10.37;;;4.80;;
11699;SDS011;5906;51.660;6.674;2024-03-25T09:39:23;12.50;;;3.73;;
11699;SDS011;5906;51.660;6.674;2024-03-25T09:41:49;17.70;;;3.50;;
11699;SDS011;5906;51.660;6.674;2024-03-25T09:44:19;13.93;;;3.50;;
11699;SDS011;5906;51.660;6.674;2024-03-25T09:46:50;9.10;;;3.50;;
11699;SDS011;5906;51.660;6.674;2024-03-25T09:49:16;13.53;;;3.73;;
11699;SDS011;5906;51.660;6.674;2024-03-25T09:51:43;10.77;;;3.10;;
11699;SDS011;5906;51.660;6.674;2024-03-25T09:54:09;25.10;;;4.20;;
11699;SDS011;5906;51.660;6.674;2024-03-25T09:56:35;17.70;;;4.20;;
11699;SDS011;5906;51.660;6.674;2024-03-25T09:59:04;13.40;;;4.03;;
11699;SDS011;5906;51.660;6.674;2024-03-25T10:01:31;19.73;;;4.20;;
11699;SDS011;5906;51.660;6.674;2024-03-25T10:03:57;8.37;;;3.80;;
11699;SDS011;5906;51.660;6.674;2024-03-25T10:06:23;18.07;;;3.90;;
11699;SDS011;5906;51.660;6.674;2024-03-25T10:08:52;16.30;;;4.80;;
11699;SDS011;5906;51.660;6.674;2024-03-25T10:11:19;7.83;;;3.70;;
11699;SDS011;5906;51.660;6.674;2024-03-25T10:13:45;12.63;;;4.20;;
11699;SDS011;5906;51.660;6.674;2024-03-25T10:16:11;13.30;;;4.17;;
11699;SDS011;5906;51.660;6.674;2024-03-25T10:18:38;14.47;;;3.90;;
11699;SDS011;5906;51.660;6.674;2024-03-25T10:21:04;11.97;;;3.97;;
11699;SDS011;5906;51.660;6.674;2024-03-25T10:23:30;11.93;;;3.90;;
11699;SDS011;5906;51.660;6.674;2024-03-25T10:25:57;14.10;;;4.60;;
11699;SDS011;5906;51.660;6.674;2024-03-25T10:28:23;17.33;;;4.03;;
11699;SDS011;5906;51.660;6.674;2024-03-25T10:30:49;10.53;;;4.30;;
11699;SDS011;5906;51.660;6.674;2024-03-25T10:33:15;12.77;;;3.60;;
11699;SDS011;5906;51.660;6.674;2024-03-25T10:35:43;14.00;;;3.90;;
11699;SDS011;5906;51.660;6.674;2024-03-25T10:38:13;13.37;;;3.33;;
11699;SDS011;5906;51.660;6.674;2024-03-25T10:40:42;17.60;;;3.70;;
11699;SDS011;5906;51.660;6.674;2024-03-25T10:43:09;9.53;;;3.67;;
11699;SDS011;5906;51.660;6.674;2024-03-25T10:45:42;19.00;;;3.40;;
11699;SDS011;5906;51.660;6.674;2024-03-25T10:48:17;11.50;;;3.33;;
11699;SDS011;5906;51.660;6.674;2024-03-25T10:50:45;8.40;;;3.00;;
11699;SDS011;5906;51.660;6.674;2024-03-25T10:53:12;15.13;;;3.67;;
11699;SDS011;5906;51.660;6.674;2024-03-25T10:55:42;8.83;;;3.57;;
11699;SDS011;5906;51.660;6.674;2024-03-25T10:58:13;15.87;;;4.37;;
11699;SDS011;5906;51.660;6.674;2024-03-25T11:00:41;8.60;;;3.10;;
11699;SDS011;5906;51.660;6.674;2024-03-25T11:03:10;9.50;;;3.20;;
11699;SDS011;5906;51.660;6.674;2024-03-25T11:05:37;7.57;;;3.50;;
11699;SDS011;5906;51.660;6.674;2024-03-25T11:08:13;12.73;;;3.60;;
11699;SDS011;5906;51.660;6.674;2024-03-25T11:10:41;12.30;;;3.13;;
11699;SDS011;5906;51.660;6.674;2024-03-25T11:13:13;10.10;;;3.73;;
11699;SDS011;5906;51.660;6.674;2024-03-25T11:15:42;10.00;;;3.47;;
11699;SDS011;5906;51.660;6.674;2024-03-25T11:18:13;10.73;;;3.53;;
11699;SDS011;5906;51.660;6.674;2024-03-25T11:20:40;3.90;;;2.97;;
11699;SDS011;5906;51.660;6.674;2024-03-25T11:23:10;5.83;;;3.87;;
11699;SDS011;5906;51.660;6.674;2024-03-25T11:25:40;8.80;;;3.73;;
11699;SDS011;5906;51.660;6.674;2024-03-25T11:28:08;5.70;;;3.43;;
11699;SDS011;5906;51.660;6.674;2024-03-25T11:30:36;14.20;;;3.60;;
11699;SDS011;5906;51.660;6.674;2024-03-25T11:33:02;8.27;;;3.23;;
11699;SDS011;5906;51.660;6.674;2024-03-25T11:35:30;10.80;;;3.37;;
11699;SDS011;5906;51.660;6.674;2024-03-25T11:38:02;10.73;;;3.37;;
11699;SDS011;5906;51.660;6.674;2024-03-25T11:40:28;13.23;;;3.00;;
11699;SDS011;5906;51.660;6.674;2024-03-25T11:42:54;10.40;;;3.40;;
11699;SDS011;5906;51.660;6.674;2024-03-25T11:45:20;9.30;;;3.93;;
11699;SDS011;5906;51.660;6.674;2024-03-25T11:47:47;4.57;;;3.40;;
11699;SDS011;5906;51.660;6.674;2024-03-25T11:50:15;9.80;;;4.10;;
11699;SDS011;5906;51.660;6.674;2024-03-25T11:52:42;9.40;;;3.20;;
11699;SDS011;5906;51.660;6.674;2024-03-25T11:55:09;8.90;;;3.63;;
11699;SDS011;5906;51.660;6.674;2024-03-25T11:57:37;6.87;;;3.60;;
11699;SDS011;5906;51.660;6.674;2024-03-25T12:02:38;8.30;;;3.33;;
11699;SDS011;5906;51.660;6.674;2024-03-25T12:05:07;7.47;;;3.30;;
11699;SDS011;5906;51.660;6.674;2024-03-25T12:07:34;11.53;;;3.50;;
11699;SDS011;5906;51.660;6.674;2024-03-25T12:10:01;6.87;;;3.27;;
11699;SDS011;5906;51.660;6.674;2024-03-25T12:12:47;7.53;;;3.17;;
11699;SDS011;5906;51.660;6.674;2024-03-25T12:15:13;6.40;;;3.10;;
11699;SDS011;5906;51.660;6.674;2024-03-25T12:17:39;15.83;;;3.23;;
11699;SDS011;5906;51.660;6.674;2024-03-25T12:20:06;8.57;;;3.07;;
11699;SDS011;5906;51.660;6.674;2024-03-25T12:22:39;7.17;;;3.40;;
11699;SDS011;5906;51.660;6.674;2024-03-25T12:25:06;5.40;;;3.13;;
11699;SDS011;5906;51.660;6.674;2024-03-25T12:27:33;7.13;;;3.20;;
11699;SDS011;5906;51.660;6.674;2024-03-25T12:30:09;6.43;;;2.80;;
11699;SDS011;5906;51.660;6.674;2024-03-25T12:32:42;6.60;;;3.37;;
11699;SDS011;5906;51.660;6.674;2024-03-25T12:35:16;7.20;;;3.13;;
11699;SDS011;5906;51.660;6.674;2024-03-25T12:37:44;6.00;;;3.10;;
11699;SDS011;5906;51.660;6.674;2024-03-25T12:40:12;7.47;;;2.60;;
11699;SDS011;5906;51.660;6.674;2024-03-25T12:42:52;9.00;;;2.93;;
11699;SDS011;5906;51.660;6.674;2024-03-25T12:45:22;11.77;;;3.63;;
11699;SDS011;5906;51.660;6.674;2024-03-25T12:47:49;9.93;;;3.13;;
11699;SDS011;5906;51.660;6.674;2024-03-25T12:50:15;8.07;;;3.70;;
11699;SDS011;5906;51.660;6.674;2024-03-25T12:52:41;10.47;;;3.27;;
11699;SDS011;5906;51.660;6.674;2024-03-25T12:55:07;6.77;;;3.40;;
11699;SDS011;5906;51.660;6.674;2024-03-25T12:57:35;7.87;;;2.63;;
11699;SDS011;5906;51.660;6.674;2024-03-25T13:00:01;6.40;;;2.83;;
11699;SDS011;5906;51.660;6.674;2024-03-25T13:02:29;10.03;;;3.07;;
11699;SDS011;5906;51.660;6.674;2024-03-25T13:04:55;5.67;;;2.70;;
11699;SDS011;5906;51.660;6.674;2024-03-25T13:07:21;12.60;;;2.60;;
11699;SDS011;5906;51.660;6.674;2024-03-25T13:09:47;6.00;;;3.03;;
11699;SDS011;5906;51.660;6.674;2024-03-25T13:12:13;9.87;;;3.23;;
11699;SDS011;5906;51.660;6.674;2024-03-25T13:14:39;4.13;;;2.37;;
11699;SDS011;5906;51.660;6.674;2024-03-25T13:17:05;8.30;;;3.13;;
11699;SDS011;5906;51.660;6.674;2024-03-25T13:19:31;7.73;;;2.80;;
11699;SDS011;5906;51.660;6.674;2024-03-25T13:21:57;7.17;;;3.47;;
11699;SDS011;5906;51.660;6.674;2024-03-25T13:24:23;10.17;;;3.60;;
11699;SDS011;5906;51.660;6.674;2024-03-25T13:26:49;9.47;;;3.03;;
11699;SDS011;5906;51.660;6.674;2024-03-25T13:29:15;6.50;;;3.27;;
11699;SDS011;5906;51.660;6.674;2024-03-25T13:31:42;6.33;;;3.43;;
11699;SDS011;5906;51.660;6.674;2024-03-25T13:34:08;10.23;;;3.57;;
11699;SDS011;5906;51.660;6.674;2024-03-25T13:36:35;19.43;;;4.30;;
11699;SDS011;5906;51.660;6.674;2024-03-25T13:39:01;8.57;;;3.60;;
11699;SDS011;5906;51.660;6.674;2024-03-25T13:41:28;7.67;;;3.63;;
11699;SDS011;5906;51.660;6.674;2024-03-25T13:43:54;7.23;;;3.47;;
11699;SDS011;5906;51.660;6.674;2024-03-25T13:46:20;8.77;;;3.67;;
11699;SDS011;5906;51.660;6.674;2024-03-25T13:48:47;6.90;;;3.77;;
11699;SDS011;5906;51.660;6.674;2024-03-25T13:51:13;11.50;;;3.87;;
11699;SDS011;5906;51.660;6.674;2024-03-25T13:53:39;8.03;;;3.60;;
11699;SDS011;5906;51.660;6.674;2024-03-25T13:56:05;5.57;;;3.53;;
11699;SDS011;5906;51.660;6.674;2024-03-25T13:58:31;15.77;;;5.73;;
11699;SDS011;5906;51.660;6.674;2024-03-25T14:00:57;7.00;;;4.37;;
11699;SDS011;5906;51.660;6.674;2024-03-25T14:03:24;11.37;;;5.03;;
11699;SDS011;5906;51.660;6.674;2024-03-25T14:05:50;6.80;;;4.60;;
11699;SDS011;5906;51.660;6.674;2024-03-25T14:08:16;13.53;;;4.83;;
11699;SDS011;5906;51.660;6.674;2024-03-25T14:10:42;11.40;;;4.90;;
11699;SDS011;5906;51.660;6.674;2024-03-25T14:13:09;11.90;;;5.07;;
11699;SDS011;5906;51.660;6.674;2024-03-25T14:15:35;12.07;;;4.80;;
11699;SDS011;5906;51.660;6.674;2024-03-25T14:18:01;13.47;;;4.70;;
11699;SDS011;5906;51.660;6.674;2024-03-25T14:20:27;10.70;;;5.20;;
11699;SDS011;5906;51.660;6.674;2024-03-25T14:22:53;9.73;;;4.80;;
11699;SDS011;5906;51.660;6.674;2024-03-25T14:25:20;9.03;;;5.63;;
11699;SDS011;5906;51.660;6.674;2024-03-25T14:27:46;9.07;;;5.90;;
11699;SDS011;5906;51.660;6.674;2024-03-25T14:30:12;10.63;;;6.13;;
11699;SDS011;5906;51.660;6.674;2024-03-25T14:32:40;13.27;;;5.83;;
11699;SDS011;5906;51.660;6.674;2024-03-25T14:35:06;10.53;;;6.13;;
11699;SDS011;5906;51.660;6.674;2024-03-25T14:37:32;11.43;;;6.07;;
11699;SDS011;5906;51.660;6.674;2024-03-25T14:39:58;8.73;;;6.00;;
11699;SDS011;5906;51.660;6.674;2024-03-25T14:42:24;12.57;;;5.20;;
11699;SDS011;5906;51.660;6.674;2024-03-25T14:44:50;10.97;;;4.87;;
11699;SDS011;5906;51.660;6.674;2024-03-25T14:47:17;7.60;;;4.70;;
11699;SDS011;5906;51.660;6.674;2024-03-25T14:49:43;12.40;;;5.10;;
11699;SDS011;5906;51.660;6.674;2024-03-25T14:52:09;14.63;;;5.00;;